Buoy 41607

sailwx.info

Track history (hours):
 
Tides and Currents Weather Stations Pressure Air Temp Water Temp Dewpoint Dewpoint Depression Visibility Wind Speed Wind Dir Waves Ship Positions

Drifting buoy 41607

Last reported at 2015-May-23 07:00 UTC. Time now 2015-May-23 10:20 UTC.
Position N 27°06' W 062°14'.

Water temperature 24.5 ° C

Date/timePositionNaut miles runAvg speedWind from/ knotsBaromVisibWave heightAir tempDewpointWater temp
2015-May-23 07:00N 27°06' W 062°14'2 0.3 24.5
2015-May-23 01:00N 27°07' W 062°16'1 0.3 24.3
2015-May-22 22:00N 27°06' W 062°16'1 0.5 24.6
2015-May-22 19:00N 27°05' W 062°15'1 0.7 24.7
2015-May-22 18:00N 27°04' W 062°15'5 0.6 24.4
2015-May-22 09:00N 27°05' W 062°09'3 0.4 23.7
2015-May-22 00:00N 27°07' W 062°06'1 0.4 26.5
2015-May-21 22:00N 27°07' W 062°06'1 0.3 27.1
2015-May-21 20:00N 27°08' W 062°07'0 0.0 27.0
2015-May-21 13:00N 27°08' W 062°07'2 0.4 24.2
2015-May-21 07:00N 27°10' W 062°06'5 0.6 23.9
2015-May-20 23:00N 27°14' W 062°04'5 0.9 24.3
2015-May-20 17:00N 27°19' W 062°07'2 0.3 24.4
2015-May-20 10:00N 27°20' W 062°09'0 0.5 23.4
2015-May-20 09:00N 27°21' W 062°09'0 0.2 23.4
2015-May-20 08:00N 27°21' W 062°09'9 0.8 23.4
2015-May-19 20:00N 27°30' W 062°10'0 0.0 23.6
2015-May-19 19:00N 27°30' W 062°10'1 0.6 23.6
2015-May-19 18:00N 27°31' W 062°11'4 0.6 23.6
2015-May-19 11:00N 27°32' W 062°15'1 0.6 23.3
2015-May-19 10:00N 27°33' W 062°16'0 0.4 23.3
2015-May-19 09:00N 27°33' W 062°16'1 0.3 23.3
2015-May-19 06:00N 27°33' W 062°17'2 0.5 23.3
2015-May-19 02:00N 27°34' W 062°19'1 0.9 23.4
2015-May-19 01:00N 27°34' W 062°20'0 0.5 23.5
2015-May-19 00:00N 27°35' W 062°20'1 0.4 23.5
2015-May-18 21:00N 27°36' W 062°20'1 1.2 23.9
2015-May-18 20:00N 27°37' W 062°21'0 0.0 24.1
2015-May-18 19:00N 27°37' W 062°21'1 0.6 24.2
2015-May-18 18:00N 27°37' W 062°21'1 1.4 24.1
2015-May-18 17:00N 27°39' W 062°22'0 0.0 24.0
2015-May-18 16:00N 27°39' W 062°22'1 0.7 23.9
2015-May-18 14:00N 27°40' W 062°22'2 1.1 23.2
2015-May-18 12:00N 27°42' W 062°24'0 0.4 22.9
2015-May-18 11:00N 27°42' W 062°23'0 0.0 22.9
2015-May-18 10:00N 27°42' W 062°23'1 1.5 22.9
2015-May-18 09:00N 27°43' W 062°24'0 0.3 22.9
2015-May-18 08:00N 27°43' W 062°24'0 0.3 22.9
2015-May-18 07:00N 27°44' W 062°24'1 1.4 22.9
2015-May-18 06:00N 27°44' W 062°25'0 0.0 23.0
2015-May-18 04:00N 27°44' W 062°25'0 0.2 23.0
2015-May-18 02:00N 27°44' W 062°25'0 0.3 23.1
2015-May-18 01:00N 27°44' W 062°25'2 0.5 23.1
2015-May-17 21:00N 27°45' W 062°23'1 0.6 23.3
2015-May-17 20:00N 27°46' W 062°23'1 1.1 23.4
2015-May-17 19:00N 27°46' W 062°22'0 0.0 23.4
2015-May-17 18:00N 27°46' W 062°22'1 1.0 23.4
2015-May-17 17:00N 27°47' W 062°21'3 0.5 23.3
2015-May-17 10:00N 27°50' W 062°20'1 0.4 23.2
2015-May-17 08:00N 27°51' W 062°20'0 0.2 23.2
2015-May-17 07:00N 27°51' W 062°20'2 0.3 23.2
2015-May-16 22:00N 27°52' W 062°17'6 0.7 23.3
2015-May-16 14:00N 27°56' W 062°13'1 0.8 23.1
2015-May-16 13:00N 27°57' W 062°12'1 0.4 23.1
2015-May-16 10:00N 27°58' W 062°12'14 0.6 23.0
2015-May-15 11:00N 28°08' W 062°00'1 1.3 23.0
2015-May-15 10:00N 28°08' W 062°02'2 0.2 23.0
2015-May-15 02:00N 28°07' W 061°60'1 0.1 23.1
2015-May-14 20:00N 28°08' W 062°00'6 0.8 23.4
2015-May-14 13:00N 28°05' W 061°54'0 0.0 23.1
2015-May-14 10:00N 28°06' W 061°54'2 0.8 22.9
2015-May-14 08:00N 28°07' W 061°53'0 0.0 22.9
2015-May-14 07:00N 28°07' W 061°53'2 0.4 22.9
2015-May-14 02:00N 28°09' W 061°52'1 0.7 23.0
2015-May-14 01:00N 28°10' W 061°52'1 0.4 23.1
2015-May-13 23:00N 28°10' W 061°53'0 0.1 23.3
2015-May-13 20:00N 28°10' W 061°53'0 0.2 23.4
2015-May-13 19:00N 28°10' W 061°53'1 0.6 23.4
2015-May-13 17:00N 28°09' W 061°53'3 2.5 23.2
2015-May-13 16:00N 28°07' W 061°51'3 0.5 23.2
2015-May-13 10:00N 28°08' W 061°48'1 1.2 23.3
2015-May-13 09:00N 28°09' W 061°47'   23.4
Track history (hours):
 
Tides and Currents Weather Stations Pressure Air Temp Water Temp Dewpoint Dewpoint Depression Visibility Wind Speed Wind Dir Waves Ship Positions

Drifting buoy 41607

Last reported at 2015-May-23 07:00 UTC. Time now 2015-May-23 10:20 UTC.
Position N 27°06' W 062°14'.

Water temperature 24.5 ° C

Date/timePositionNaut miles runAvg speedWind from/ knotsBaromVisibWave heightAir tempDewpointWater temp
2015-May-23 07:00N 27°06' W 062°14'2 0.3 24.5
2015-May-23 01:00N 27°07' W 062°16'1 0.3 24.3
2015-May-22 22:00N 27°06' W 062°16'1 0.5 24.6
2015-May-22 19:00N 27°05' W 062°15'1 0.7 24.7
2015-May-22 18:00N 27°04' W 062°15'5 0.6 24.4
2015-May-22 09:00N 27°05' W 062°09'3 0.4 23.7
2015-May-22 00:00N 27°07' W 062°06'1 0.4 26.5
2015-May-21 22:00N 27°07' W 062°06'1 0.3 27.1
2015-May-21 20:00N 27°08' W 062°07'0 0.0 27.0
2015-May-21 13:00N 27°08' W 062°07'2 0.4 24.2
2015-May-21 07:00N 27°10' W 062°06'5 0.6 23.9
2015-May-20 23:00N 27°14' W 062°04'5 0.9 24.3
2015-May-20 17:00N 27°19' W 062°07'2 0.3 24.4
2015-May-20 10:00N 27°20' W 062°09'0 0.5 23.4
2015-May-20 09:00N 27°21' W 062°09'0 0.2 23.4
2015-May-20 08:00N 27°21' W 062°09'9 0.8 23.4
2015-May-19 20:00N 27°30' W 062°10'0 0.0 23.6
2015-May-19 19:00N 27°30' W 062°10'1 0.6 23.6
2015-May-19 18:00N 27°31' W 062°11'4 0.6 23.6
2015-May-19 11:00N 27°32' W 062°15'1 0.6 23.3
2015-May-19 10:00N 27°33' W 062°16'0 0.4 23.3
2015-May-19 09:00N 27°33' W 062°16'1 0.3 23.3
2015-May-19 06:00N 27°33' W 062°17'2 0.5 23.3
2015-May-19 02:00N 27°34' W 062°19'1 0.9 23.4
2015-May-19 01:00N 27°34' W 062°20'0 0.5 23.5
2015-May-19 00:00N 27°35' W 062°20'1 0.4 23.5
2015-May-18 21:00N 27°36' W 062°20'1 1.2 23.9
2015-May-18 20:00N 27°37' W 062°21'0 0.0 24.1
2015-May-18 19:00N 27°37' W 062°21'1 0.6 24.2
2015-May-18 18:00N 27°37' W 062°21'1 1.4 24.1
2015-May-18 17:00N 27°39' W 062°22'0 0.0 24.0
2015-May-18 16:00N 27°39' W 062°22'1 0.7 23.9
2015-May-18 14:00N 27°40' W 062°22'2 1.1 23.2
2015-May-18 12:00N 27°42' W 062°24'0 0.4 22.9
2015-May-18 11:00N 27°42' W 062°23'0 0.0 22.9
2015-May-18 10:00N 27°42' W 062°23'1 1.5 22.9
2015-May-18 09:00N 27°43' W 062°24'0 0.3 22.9
2015-May-18 08:00N 27°43' W 062°24'0 0.3 22.9
2015-May-18 07:00N 27°44' W 062°24'1 1.4 22.9
2015-May-18 06:00N 27°44' W 062°25'0 0.0 23.0
2015-May-18 04:00N 27°44' W 062°25'0 0.2 23.0
2015-May-18 02:00N 27°44' W 062°25'0 0.3 23.1
2015-May-18 01:00N 27°44' W 062°25'2 0.5 23.1
2015-May-17 21:00N 27°45' W 062°23'1 0.6 23.3
2015-May-17 20:00N 27°46' W 062°23'1 1.1 23.4
2015-May-17 19:00N 27°46' W 062°22'0 0.0 23.4
2015-May-17 18:00N 27°46' W 062°22'1 1.0 23.4
2015-May-17 17:00N 27°47' W 062°21'3 0.5 23.3
2015-May-17 10:00N 27°50' W 062°20'1 0.4 23.2
2015-May-17 08:00N 27°51' W 062°20'0 0.2 23.2
2015-May-17 07:00N 27°51' W 062°20'2 0.3 23.2
2015-May-16 22:00N 27°52' W 062°17'6 0.7 23.3
2015-May-16 14:00N 27°56' W 062°13'1 0.8 23.1
2015-May-16 13:00N 27°57' W 062°12'1 0.4 23.1
2015-May-16 10:00N 27°58' W 062°12'14 0.6 23.0
2015-May-15 11:00N 28°08' W 062°00'1 1.3 23.0
2015-May-15 10:00N 28°08' W 062°02'2 0.2 23.0
2015-May-15 02:00N 28°07' W 061°60'1 0.1 23.1
2015-May-14 20:00N 28°08' W 062°00'6 0.8 23.4
2015-May-14 13:00N 28°05' W 061°54'0 0.0 23.1
2015-May-14 10:00N 28°06' W 061°54'2 0.8 22.9
2015-May-14 08:00N 28°07' W 061°53'0 0.0 22.9
2015-May-14 07:00N 28°07' W 061°53'2 0.4 22.9
2015-May-14 02:00N 28°09' W 061°52'1 0.7 23.0
2015-May-14 01:00N 28°10' W 061°52'1 0.4 23.1
2015-May-13 23:00N 28°10' W 061°53'0 0.1 23.3
2015-May-13 20:00N 28°10' W 061°53'0 0.2 23.4
2015-May-13 19:00N 28°10' W 061°53'1 0.6 23.4
2015-May-13 17:00N 28°09' W 061°53'3 2.5 23.2
2015-May-13 16:00N 28°07' W 061°51'3 0.5 23.2
2015-May-13 10:00N 28°08' W 061°48'1 1.2 23.3
2015-May-13 09:00N 28°09' W 061°47'   23.4

Dump ship's entire track history